sensor_id;sensor_type;location;lat;lon;timestamp;temperature;humidity
4103;DHT22;2065;49.790;9.620;2022-12-07T00:01:16;8.00;58.90
4103;DHT22;2065;49.790;9.620;2022-12-07T00:03:44;8.10;58.50
4103;DHT22;2065;49.790;9.620;2022-12-07T00:06:14;8.20;58.40
4103;DHT22;2065;49.790;9.620;2022-12-07T00:08:41;8.30;58.30
4103;DHT22;2065;49.790;9.620;2022-12-07T00:11:12;8.40;58.30
4103;DHT22;2065;49.790;9.620;2022-12-07T00:13:40;8.50;58.00
4103;DHT22;2065;49.790;9.620;2022-12-07T00:16:09;8.40;58.10
4103;DHT22;2065;49.790;9.620;2022-12-07T00:18:37;8.50;58.50
4103;DHT22;2065;49.790;9.620;2022-12-07T00:21:05;8.50;58.30
4103;DHT22;2065;49.790;9.620;2022-12-07T00:23:33;8.50;58.10
4103;DHT22;2065;49.790;9.620;2022-12-07T00:26:05;8.50;58.40
4103;DHT22;2065;49.790;9.620;2022-12-07T00:28:33;8.50;58.10
4103;DHT22;2065;49.790;9.620;2022-12-07T00:31:03;8.50;57.90
4103;DHT22;2065;49.790;9.620;2022-12-07T00:33:30;8.40;57.70
4103;DHT22;2065;49.790;9.620;2022-12-07T00:35:58;8.40;57.90
4103;DHT22;2065;49.790;9.620;2022-12-07T00:38:28;8.40;58.10
4103;DHT22;2065;49.790;9.620;2022-12-07T00:40:56;8.10;58.10
4103;DHT22;2065;49.790;9.620;2022-12-07T00:43:23;8.20;58.70
4103;DHT22;2065;49.790;9.620;2022-12-07T00:45:52;8.10;59.00
4103;DHT22;2065;49.790;9.620;2022-12-07T00:48:20;8.20;58.90
4103;DHT22;2065;49.790;9.620;2022-12-07T00:50:47;8.30;58.40
4103;DHT22;2065;49.790;9.620;2022-12-07T00:53:14;8.40;58.40
4103;DHT22;2065;49.790;9.620;2022-12-07T00:55:41;8.50;58.80
4103;DHT22;2065;49.790;9.620;2022-12-07T00:58:08;8.60;58.60
4103;DHT22;2065;49.790;9.620;2022-12-07T01:00:36;8.60;58.20
4103;DHT22;2065;49.790;9.620;2022-12-07T01:03:05;8.60;58.00
4103;DHT22;2065;49.790;9.620;2022-12-07T01:05:33;8.60;57.70
4103;DHT22;2065;49.790;9.620;2022-12-07T01:08:00;8.10;58.50
4103;DHT22;2065;49.790;9.620;2022-12-07T01:10:27;8.00;59.60
4103;DHT22;2065;49.790;9.620;2022-12-07T01:12:55;7.90;60.00
4103;DHT22;2065;49.790;9.620;2022-12-07T01:15:23;7.90;60.00
4103;DHT22;2065;49.790;9.620;2022-12-07T01:17:50;8.10;59.50
4103;DHT22;2065;49.790;9.620;2022-12-07T01:20:18;8.10;59.70
4103;DHT22;2065;49.790;9.620;2022-12-07T01:22:45;8.10;59.70
4103;DHT22;2065;49.790;9.620;2022-12-07T01:25:12;8.10;59.50
4103;DHT22;2065;49.790;9.620;2022-12-07T01:27:39;8.10;59.90
4103;DHT22;2065;49.790;9.620;2022-12-07T01:30:07;8.30;59.50
4103;DHT22;2065;49.790;9.620;2022-12-07T01:32:34;8.30;58.70
4103;DHT22;2065;49.790;9.620;2022-12-07T01:35:02;8.30;59.00
4103;DHT22;2065;49.790;9.620;2022-12-07T01:37:34;8.40;58.70
4103;DHT22;2065;49.790;9.620;2022-12-07T01:40:01;8.40;58.60
4103;DHT22;2065;49.790;9.620;2022-12-07T01:42:28;8.10;58.80
4103;DHT22;2065;49.790;9.620;2022-12-07T01:48:04;8.20;59.60
4103;DHT22;2065;49.790;9.620;2022-12-07T01:50:32;8.40;59.30
4103;DHT22;2065;49.790;9.620;2022-12-07T01:53:04;8.50;59.20
4103;DHT22;2065;49.790;9.620;2022-12-07T01:55:34;8.60;58.80
4103;DHT22;2065;49.790;9.620;2022-12-07T01:58:04;8.70;58.50
4103;DHT22;2065;49.790;9.620;2022-12-07T02:00:31;8.60;58.20
4103;DHT22;2065;49.790;9.620;2022-12-07T02:03:03;8.60;58.50
4103;DHT22;2065;49.790;9.620;2022-12-07T02:05:32;8.60;58.50
4103;DHT22;2065;49.790;9.620;2022-12-07T02:08:03;8.60;58.70
4103;DHT22;2065;49.790;9.620;2022-12-07T02:10:31;8.70;58.50
4103;DHT22;2065;49.790;9.620;2022-12-07T02:13:01;8.70;58.20
4103;DHT22;2065;49.790;9.620;2022-12-07T02:15:37;8.70;58.40
4103;DHT22;2065;49.790;9.620;2022-12-07T02:18:09;8.70;58.40
4103;DHT22;2065;49.790;9.620;2022-12-07T02:20:42;8.80;58.20
4103;DHT22;2065;49.790;9.620;2022-12-07T02:23:39;8.70;57.90
4103;DHT22;2065;49.790;9.620;2022-12-07T02:26:26;8.60;58.40
4103;DHT22;2065;49.790;9.620;2022-12-07T02:29:10;8.50;58.20
4103;DHT22;2065;49.790;9.620;2022-12-07T02:31:43;8.20;58.70
4103;DHT22;2065;49.790;9.620;2022-12-07T02:34:19;8.00;59.30
4103;DHT22;2065;49.790;9.620;2022-12-07T02:36:52;7.60;60.20
4103;DHT22;2065;49.790;9.620;2022-12-07T02:39:26;7.70;60.20
4103;DHT22;2065;49.790;9.620;2022-12-07T02:41:59;7.80;59.80
4103;DHT22;2065;49.790;9.620;2022-12-07T02:44:31;7.70;60.00
4103;DHT22;2065;49.790;9.620;2022-12-07T02:47:02;7.60;60.20
4103;DHT22;2065;49.790;9.620;2022-12-07T02:49:30;7.60;60.40
4103;DHT22;2065;49.790;9.620;2022-12-07T02:51:57;7.60;60.20
4103;DHT22;2065;49.790;9.620;2022-12-07T02:54:24;7.40;60.00
4103;DHT22;2065;49.790;9.620;2022-12-07T02:56:56;7.30;60.80
4103;DHT22;2065;49.790;9.620;2022-12-07T02:59:35;7.50;60.70
4103;DHT22;2065;49.790;9.620;2022-12-07T03:02:13;7.50;60.10
4103;DHT22;2065;49.790;9.620;2022-12-07T03:04:49;7.50;60.30
4103;DHT22;2065;49.790;9.620;2022-12-07T03:07:24;7.40;60.50
4103;DHT22;2065;49.790;9.620;2022-12-07T03:09:59;7.40;60.70
4103;DHT22;2065;49.790;9.620;2022-12-07T03:12:31;7.60;60.30
4103;DHT22;2065;49.790;9.620;2022-12-07T03:15:05;7.80;60.00
4103;DHT22;2065;49.790;9.620;2022-12-07T03:17:37;7.90;59.60
4103;DHT22;2065;49.790;9.620;2022-12-07T03:20:10;7.90;59.70
4103;DHT22;2065;49.790;9.620;2022-12-07T03:22:40;7.90;59.80
4103;DHT22;2065;49.790;9.620;2022-12-07T03:25:11;8.00;59.10
4103;DHT22;2065;49.790;9.620;2022-12-07T03:27:41;8.20;59.20
4103;DHT22;2065;49.790;9.620;2022-12-07T03:30:14;8.40;58.70
4103;DHT22;2065;49.790;9.620;2022-12-07T03:32:45;8.60;58.40
4103;DHT22;2065;49.790;9.620;2022-12-07T03:35:17;8.60;58.40
4103;DHT22;2065;49.790;9.620;2022-12-07T03:37:49;8.60;58.50
4103;DHT22;2065;49.790;9.620;2022-12-07T03:40:22;8.50;58.00
4103;DHT22;2065;49.790;9.620;2022-12-07T03:42:52;8.30;58.90
4103;DHT22;2065;49.790;9.620;2022-12-07T03:45:25;8.10;58.70
4103;DHT22;2065;49.790;9.620;2022-12-07T03:48:03;8.10;58.60
4103;DHT22;2065;49.790;9.620;2022-12-07T03:50:38;7.90;59.10
4103;DHT22;2065;49.790;9.620;2022-12-07T03:53:11;7.80;59.00
4103;DHT22;2065;49.790;9.620;2022-12-07T03:55:41;7.70;59.10
4103;DHT22;2065;49.790;9.620;2022-12-07T03:58:12;7.60;59.80
4103;DHT22;2065;49.790;9.620;2022-12-07T04:00:42;7.60;59.90
4103;DHT22;2065;49.790;9.620;2022-12-07T04:03:09;7.60;59.90
4103;DHT22;2065;49.790;9.620;2022-12-07T04:05:37;7.80;59.90
4103;DHT22;2065;49.790;9.620;2022-12-07T04:08:04;7.70;59.50
4103;DHT22;2065;49.790;9.620;2022-12-07T04:10:32;7.80;59.80
4103;DHT22;2065;49.790;9.620;2022-12-07T04:12:59;7.90;59.50
4103;DHT22;2065;49.790;9.620;2022-12-07T04:15:26;7.90;59.10
4103;DHT22;2065;49.790;9.620;2022-12-07T04:17:55;7.90;59.30
4103;DHT22;2065;49.790;9.620;2022-12-07T04:20:22;8.10;59.10
4103;DHT22;2065;49.790;9.620;2022-12-07T04:22:49;8.20;58.70
4103;DHT22;2065;49.790;9.620;2022-12-07T04:25:16;8.40;58.80
4103;DHT22;2065;49.790;9.620;2022-12-07T04:27:43;8.60;58.50
4103;DHT22;2065;49.790;9.620;2022-12-07T04:30:11;8.70;58.30
4103;DHT22;2065;49.790;9.620;2022-12-07T04:32:38;8.70;58.00
4103;DHT22;2065;49.790;9.620;2022-12-07T04:35:07;8.80;57.90
4103;DHT22;2065;49.790;9.620;2022-12-07T04:37:34;8.40;58.40
4103;DHT22;2065;49.790;9.620;2022-12-07T04:40:02;8.30;58.90
4103;DHT22;2065;49.790;9.620;2022-12-07T04:42:29;8.20;58.30
4103;DHT22;2065;49.790;9.620;2022-12-07T04:44:56;8.10;58.40
4103;DHT22;2065;49.790;9.620;2022-12-07T04:47:23;7.90;59.30
4103;DHT22;2065;49.790;9.620;2022-12-07T04:49:50;7.90;59.10
4103;DHT22;2065;49.790;9.620;2022-12-07T04:52:18;8.00;59.40
4103;DHT22;2065;49.790;9.620;2022-12-07T04:54:45;7.90;59.10
4103;DHT22;2065;49.790;9.620;2022-12-07T04:57:12;7.70;59.40
4103;DHT22;2065;49.790;9.620;2022-12-07T04:59:39;7.50;60.00
4103;DHT22;2065;49.790;9.620;2022-12-07T05:02:06;7.40;60.40
4103;DHT22;2065;49.790;9.620;2022-12-07T05:04:33;7.40;60.60
4103;DHT22;2065;49.790;9.620;2022-12-07T05:07:00;7.50;60.30
4103;DHT22;2065;49.790;9.620;2022-12-07T05:09:28;7.40;60.50
4103;DHT22;2065;49.790;9.620;2022-12-07T05:11:55;7.40;61.30
4103;DHT22;2065;49.790;9.620;2022-12-07T05:14:23;7.50;60.60
4103;DHT22;2065;49.790;9.620;2022-12-07T05:16:51;7.60;60.90
4103;DHT22;2065;49.790;9.620;2022-12-07T05:19:19;7.70;60.40
4103;DHT22;2065;49.790;9.620;2022-12-07T05:21:46;7.60;60.30
4103;DHT22;2065;49.790;9.620;2022-12-07T05:24:15;7.50;61.40
4103;DHT22;2065;49.790;9.620;2022-12-07T05:26:44;7.40;61.60
4103;DHT22;2065;49.790;9.620;2022-12-07T05:29:12;7.50;61.80
4103;DHT22;2065;49.790;9.620;2022-12-07T05:31:39;7.40;62.20
4103;DHT22;2065;49.790;9.620;2022-12-07T05:34:06;7.40;62.40
4103;DHT22;2065;49.790;9.620;2022-12-07T05:36:33;7.30;62.20
4103;DHT22;2065;49.790;9.620;2022-12-07T05:39:00;6.90;63.80
4103;DHT22;2065;49.790;9.620;2022-12-07T05:41:27;6.80;64.10
4103;DHT22;2065;49.790;9.620;2022-12-07T05:44:13;6.90;64.50
4103;DHT22;2065;49.790;9.620;2022-12-07T05:46:41;7.10;63.80
4103;DHT22;2065;49.790;9.620;2022-12-07T05:49:07;7.30;63.40
4103;DHT22;2065;49.790;9.620;2022-12-07T05:51:34;7.30;63.20
4103;DHT22;2065;49.790;9.620;2022-12-07T05:54:02;7.10;63.40
4103;DHT22;2065;49.790;9.620;2022-12-07T05:56:29;7.00;64.20
4103;DHT22;2065;49.790;9.620;2022-12-07T05:58:56;7.00;63.90
4103;DHT22;2065;49.790;9.620;2022-12-07T06:01:42;7.30;63.60
4103;DHT22;2065;49.790;9.620;2022-12-07T06:04:09;7.50;63.00
4103;DHT22;2065;49.790;9.620;2022-12-07T06:06:36;7.70;62.10
4103;DHT22;2065;49.790;9.620;2022-12-07T06:09:03;7.60;62.20
4103;DHT22;2065;49.790;9.620;2022-12-07T06:11:30;7.80;61.80
4103;DHT22;2065;49.790;9.620;2022-12-07T06:14:14;7.60;61.60
4103;DHT22;2065;49.790;9.620;2022-12-07T06:16:43;7.30;62.80
4103;DHT22;2065;49.790;9.620;2022-12-07T06:19:10;7.40;63.00
4103;DHT22;2065;49.790;9.620;2022-12-07T06:21:37;7.50;62.90
4103;DHT22;2065;49.790;9.620;2022-12-07T06:24:04;7.60;62.70
4103;DHT22;2065;49.790;9.620;2022-12-07T06:26:31;7.80;62.10
4103;DHT22;2065;49.790;9.620;2022-12-07T06:28:58;7.90;61.50
4103;DHT22;2065;49.790;9.620;2022-12-07T06:31:25;7.80;62.10
4103;DHT22;2065;49.790;9.620;2022-12-07T06:33:58;7.80;62.20
4103;DHT22;2065;49.790;9.620;2022-12-07T06:36:25;7.80;61.90
4103;DHT22;2065;49.790;9.620;2022-12-07T06:38:53;7.90;61.70
4103;DHT22;2065;49.790;9.620;2022-12-07T06:41:20;8.00;61.30
4103;DHT22;2065;49.790;9.620;2022-12-07T06:43:48;7.90;61.30
4103;DHT22;2065;49.790;9.620;2022-12-07T06:46:15;7.80;61.50
4103;DHT22;2065;49.790;9.620;2022-12-07T06:48:42;7.50;61.90
4103;DHT22;2065;49.790;9.620;2022-12-07T06:51:11;7.40;63.10
4103;DHT22;2065;49.790;9.620;2022-12-07T06:53:38;7.30;63.20
4103;DHT22;2065;49.790;9.620;2022-12-07T06:56:06;7.50;62.70
4103;DHT22;2065;49.790;9.620;2022-12-07T06:58:33;7.70;62.40
4103;DHT22;2065;49.790;9.620;2022-12-07T07:01:00;7.50;62.40
4103;DHT22;2065;49.790;9.620;2022-12-07T07:03:27;7.70;62.50
4103;DHT22;2065;49.790;9.620;2022-12-07T07:05:54;7.90;61.80
4103;DHT22;2065;49.790;9.620;2022-12-07T07:08:22;8.10;61.60
4103;DHT22;2065;49.790;9.620;2022-12-07T07:10:49;8.30;61.00
4103;DHT22;2065;49.790;9.620;2022-12-07T07:13:16;8.20;60.10
4103;DHT22;2065;49.790;9.620;2022-12-07T07:15:44;8.10;60.50
4103;DHT22;2065;49.790;9.620;2022-12-07T07:18:11;8.00;60.70
4103;DHT22;2065;49.790;9.620;2022-12-07T07:20:38;8.10;60.60
4103;DHT22;2065;49.790;9.620;2022-12-07T07:23:06;8.00;60.80
4103;DHT22;2065;49.790;9.620;2022-12-07T07:25:34;7.90;60.90
4103;DHT22;2065;49.790;9.620;2022-12-07T07:28:01;7.70;62.30
4103;DHT22;2065;49.790;9.620;2022-12-07T07:30:28;7.90;61.70
4103;DHT22;2065;49.790;9.620;2022-12-07T07:32:56;7.70;62.20
4103;DHT22;2065;49.790;9.620;2022-12-07T07:35:24;7.70;62.50
4103;DHT22;2065;49.790;9.620;2022-12-07T07:37:51;7.90;62.20
4103;DHT22;2065;49.790;9.620;2022-12-07T07:40:18;8.00;62.10
4103;DHT22;2065;49.790;9.620;2022-12-07T07:42:48;8.10;61.60
4103;DHT22;2065;49.790;9.620;2022-12-07T07:45:15;8.10;61.00
4103;DHT22;2065;49.790;9.620;2022-12-07T07:47:42;8.10;60.90
4103;DHT22;2065;49.790;9.620;2022-12-07T07:50:10;8.00;61.50
4103;DHT22;2065;49.790;9.620;2022-12-07T07:52:37;7.90;61.90
4103;DHT22;2065;49.790;9.620;2022-12-07T07:55:05;7.80;62.30
4103;DHT22;2065;49.790;9.620;2022-12-07T07:57:34;7.90;62.00
4103;DHT22;2065;49.790;9.620;2022-12-07T08:00:04;7.70;62.40
4103;DHT22;2065;49.790;9.620;2022-12-07T08:02:38;7.60;62.90
4103;DHT22;2065;49.790;9.620;2022-12-07T08:05:06;7.50;62.60
4103;DHT22;2065;49.790;9.620;2022-12-07T08:07:33;7.50;63.60
4103;DHT22;2065;49.790;9.620;2022-12-07T08:10:00;7.70;63.30
4103;DHT22;2065;49.790;9.620;2022-12-07T08:12:27;7.80;62.80
4103;DHT22;2065;49.790;9.620;2022-12-07T08:14:54;7.90;63.00
4103;DHT22;2065;49.790;9.620;2022-12-07T08:17:23;8.00;62.60
4103;DHT22;2065;49.790;9.620;2022-12-07T08:19:49;7.90;62.70
4103;DHT22;2065;49.790;9.620;2022-12-07T08:22:16;8.00;62.80
4103;DHT22;2065;49.790;9.620;2022-12-07T08:24:44;8.20;62.30
4103;DHT22;2065;49.790;9.620;2022-12-07T08:27:11;8.10;61.90
4103;DHT22;2065;49.790;9.620;2022-12-07T08:29:38;8.10;62.30
4103;DHT22;2065;49.790;9.620;2022-12-07T08:32:05;8.20;61.90
4103;DHT22;2065;49.790;9.620;2022-12-07T08:34:34;8.20;61.70
4103;DHT22;2065;49.790;9.620;2022-12-07T08:37:01;8.10;62.40
4103;DHT22;2065;49.790;9.620;2022-12-07T08:39:28;8.20;62.20
4103;DHT22;2065;49.790;9.620;2022-12-07T08:41:55;8.10;62.20
4103;DHT22;2065;49.790;9.620;2022-12-07T08:44:22;8.10;62.60
4103;DHT22;2065;49.790;9.620;2022-12-07T08:46:51;8.20;62.30
4103;DHT22;2065;49.790;9.620;2022-12-07T08:49:23;8.30;62.30
4103;DHT22;2065;49.790;9.620;2022-12-07T08:51:52;8.20;61.80
4103;DHT22;2065;49.790;9.620;2022-12-07T08:54:19;8.20;62.80
4103;DHT22;2065;49.790;9.620;2022-12-07T08:56:48;8.30;62.70
4103;DHT22;2065;49.790;9.620;2022-12-07T08:59:17;8.40;61.90
4103;DHT22;2065;49.790;9.620;2022-12-07T09:01:46;8.20;62.40
4103;DHT22;2065;49.790;9.620;2022-12-07T09:04:13;8.30;62.50
4103;DHT22;2065;49.790;9.620;2022-12-07T09:06:41;8.20;62.90
4103;DHT22;2065;49.790;9.620;2022-12-07T09:09:10;8.20;63.10
4103;DHT22;2065;49.790;9.620;2022-12-07T09:11:38;8.30;62.90
4103;DHT22;2065;49.790;9.620;2022-12-07T09:14:05;8.20;62.70
4103;DHT22;2065;49.790;9.620;2022-12-07T09:16:32;8.10;63.20
4103;DHT22;2065;49.790;9.620;2022-12-07T09:18:59;8.00;63.90
4103;DHT22;2065;49.790;9.620;2022-12-07T09:21:26;7.90;64.00
4103;DHT22;2065;49.790;9.620;2022-12-07T09:23:53;8.00;64.10
4103;DHT22;2065;49.790;9.620;2022-12-07T09:26:22;8.10;63.80
4103;DHT22;2065;49.790;9.620;2022-12-07T09:28:49;8.00;64.30
4103;DHT22;2065;49.790;9.620;2022-12-07T09:31:16;8.10;63.80
4103;DHT22;2065;49.790;9.620;2022-12-07T09:33:43;8.20;63.00
4103;DHT22;2065;49.790;9.620;2022-12-07T09:36:10;8.10;62.90
4103;DHT22;2065;49.790;9.620;2022-12-07T09:38:37;8.00;63.00
4103;DHT22;2065;49.790;9.620;2022-12-07T09:41:05;8.00;63.50
4103;DHT22;2065;49.790;9.620;2022-12-07T09:43:35;8.00;63.20
4103;DHT22;2065;49.790;9.620;2022-12-07T09:46:03;8.10;63.50
4103;DHT22;2065;49.790;9.620;2022-12-07T09:48:33;8.30;62.60
4103;DHT22;2065;49.790;9.620;2022-12-07T09:51:03;8.10;62.80
4103;DHT22;2065;49.790;9.620;2022-12-07T09:53:38;8.30;62.30
4103;DHT22;2065;49.790;9.620;2022-12-07T09:56:06;8.50;62.40
4103;DHT22;2065;49.790;9.620;2022-12-07T09:58:34;8.50;61.50
4103;DHT22;2065;49.790;9.620;2022-12-07T10:01:11;8.50;61.60
4103;DHT22;2065;49.790;9.620;2022-12-07T10:03:50;8.60;62.30
4103;DHT22;2065;49.790;9.620;2022-12-07T10:06:19;8.80;61.90
4103;DHT22;2065;49.790;9.620;2022-12-07T10:08:46;8.60;61.20
4103;DHT22;2065;49.790;9.620;2022-12-07T10:11:13;8.70;61.90
4103;DHT22;2065;49.790;9.620;2022-12-07T10:13:44;8.60;61.40
4103;DHT22;2065;49.790;9.620;2022-12-07T10:16:35;8.50;61.90
4103;DHT22;2065;49.790;9.620;2022-12-07T10:19:18;8.60;61.20
4103;DHT22;2065;49.790;9.620;2022-12-07T10:22:03;8.70;61.70
4103;DHT22;2065;49.790;9.620;2022-12-07T10:24:31;8.80;61.50
4103;DHT22;2065;49.790;9.620;2022-12-07T10:26:58;8.90;61.20
4103;DHT22;2065;49.790;9.620;2022-12-07T10:29:29;9.20;61.20
4103;DHT22;2065;49.790;9.620;2022-12-07T10:31:58;9.20;60.10
4103;DHT22;2065;49.790;9.620;2022-12-07T10:34:28;9.00;60.60
4103;DHT22;2065;49.790;9.620;2022-12-07T10:37:14;9.10;60.70
4103;DHT22;2065;49.790;9.620;2022-12-07T10:39:42;9.10;60.30
4103;DHT22;2065;49.790;9.620;2022-12-07T10:42:17;9.00;60.30
4103;DHT22;2065;49.790;9.620;2022-12-07T10:44:46;8.90;60.90
4103;DHT22;2065;49.790;9.620;2022-12-07T10:47:25;8.90;60.80
4103;DHT22;2065;49.790;9.620;2022-12-07T10:50:26;9.10;60.30
4103;DHT22;2065;49.790;9.620;2022-12-07T10:53:23;9.00;60.40
4103;DHT22;2065;49.790;9.620;2022-12-07T10:56:09;9.10;59.90
4103;DHT22;2065;49.790;9.620;2022-12-07T10:58:49;9.10;60.90
4103;DHT22;2065;49.790;9.620;2022-12-07T11:01:24;8.90;60.80
4103;DHT22;2065;49.790;9.620;2022-12-07T11:04:13;8.80;61.00
4103;DHT22;2065;49.790;9.620;2022-12-07T11:06:47;9.00;60.80
4103;DHT22;2065;49.790;9.620;2022-12-07T11:09:39;9.10;60.60
4103;DHT22;2065;49.790;9.620;2022-12-07T11:12:13;9.10;60.50
4103;DHT22;2065;49.790;9.620;2022-12-07T11:14:48;9.10;60.30
4103;DHT22;2065;49.790;9.620;2022-12-07T11:17:25;8.90;60.10
4103;DHT22;2065;49.790;9.620;2022-12-07T11:20:01;9.00;60.50
4103;DHT22;2065;49.790;9.620;2022-12-07T11:22:36;9.10;60.00
4103;DHT22;2065;49.790;9.620;2022-12-07T11:25:18;8.90;60.40
4103;DHT22;2065;49.790;9.620;2022-12-07T11:27:51;8.80;60.90
4103;DHT22;2065;49.790;9.620;2022-12-07T11:30:29;8.90;60.60
4103;DHT22;2065;49.790;9.620;2022-12-07T11:33:12;8.90;60.90
4103;DHT22;2065;49.790;9.620;2022-12-07T11:35:54;9.00;60.50
4103;DHT22;2065;49.790;9.620;2022-12-07T11:38:28;9.20;60.40
4103;DHT22;2065;49.790;9.620;2022-12-07T11:41:02;9.30;59.80
4103;DHT22;2065;49.790;9.620;2022-12-07T11:43:50;9.40;59.70
4103;DHT22;2065;49.790;9.620;2022-12-07T11:46:22;9.50;59.00
4103;DHT22;2065;49.790;9.620;2022-12-07T11:48:58;9.40;58.90
4103;DHT22;2065;49.790;9.620;2022-12-07T11:51:29;9.50;59.10
4103;DHT22;2065;49.790;9.620;2022-12-07T11:54:01;9.70;58.50
4103;DHT22;2065;49.790;9.620;2022-12-07T11:56:30;9.60;58.50
4103;DHT22;2065;49.790;9.620;2022-12-07T11:59:09;9.60;58.50
4103;DHT22;2065;49.790;9.620;2022-12-07T12:01:50;9.60;58.90
4103;DHT22;2065;49.790;9.620;2022-12-07T12:04:34;9.70;58.10
4103;DHT22;2065;49.790;9.620;2022-12-07T12:07:06;9.80;58.20
4103;DHT22;2065;49.790;9.620;2022-12-07T12:09:40;9.60;57.70
4103;DHT22;2065;49.790;9.620;2022-12-07T12:12:55;9.60;58.10
4103;DHT22;2065;49.790;9.620;2022-12-07T12:15:37;9.40;58.40
4103;DHT22;2065;49.790;9.620;2022-12-07T12:18:31;9.40;58.40
4103;DHT22;2065;49.790;9.620;2022-12-07T12:21:06;9.30;58.70
4103;DHT22;2065;49.790;9.620;2022-12-07T12:23:39;9.30;58.90
4103;DHT22;2065;49.790;9.620;2022-12-07T12:26:15;9.00;58.70
4103;DHT22;2065;49.790;9.620;2022-12-07T12:28:50;9.00;59.20
4103;DHT22;2065;49.790;9.620;2022-12-07T12:31:32;8.90;58.70
4103;DHT22;2065;49.790;9.620;2022-12-07T12:34:04;9.00;58.80
4103;DHT22;2065;49.790;9.620;2022-12-07T12:36:46;9.20;59.30
4103;DHT22;2065;49.790;9.620;2022-12-07T12:39:15;9.30;58.60
4103;DHT22;2065;49.790;9.620;2022-12-07T12:41:58;9.50;58.70
4103;DHT22;2065;49.790;9.620;2022-12-07T12:45:18;9.40;58.10
4103;DHT22;2065;49.790;9.620;2022-12-07T12:47:55;9.40;58.20
4103;DHT22;2065;49.790;9.620;2022-12-07T12:50:30;9.60;58.30
4103;DHT22;2065;49.790;9.620;2022-12-07T12:53:19;9.60;58.00
4103;DHT22;2065;49.790;9.620;2022-12-07T12:56:11;9.60;57.80
4103;DHT22;2065;49.790;9.620;2022-12-07T12:58:43;9.60;58.00
4103;DHT22;2065;49.790;9.620;2022-12-07T13:01:44;9.80;58.00
4103;DHT22;2065;49.790;9.620;2022-12-07T13:10:39;9.70;57.20
4103;DHT22;2065;49.790;9.620;2022-12-07T13:13:32;9.70;57.20
4103;DHT22;2065;49.790;9.620;2022-12-07T13:16:38;9.80;57.50
4103;DHT22;2065;49.790;9.620;2022-12-07T13:22:43;9.50;57.50
4103;DHT22;2065;49.790;9.620;2022-12-07T13:25:12;9.70;57.40
4103;DHT22;2065;49.790;9.620;2022-12-07T13:27:51;9.70;57.00
4103;DHT22;2065;49.790;9.620;2022-12-07T13:30:21;9.50;56.80
4103;DHT22;2065;49.790;9.620;2022-12-07T13:32:52;9.60;57.60
4103;DHT22;2065;49.790;9.620;2022-12-07T13:35:28;9.50;57.70
4103;DHT22;2065;49.790;9.620;2022-12-07T13:37:55;9.40;57.30
4103;DHT22;2065;49.790;9.620;2022-12-07T13:40:23;9.40;57.50
4103;DHT22;2065;49.790;9.620;2022-12-07T13:42:58;9.40;57.20
4103;DHT22;2065;49.790;9.620;2022-12-07T13:45:28;9.50;57.10
4103;DHT22;2065;49.790;9.620;2022-12-07T13:48:14;9.40;56.40
4103;DHT22;2065;49.790;9.620;2022-12-07T13:50:42;9.20;56.20
4103;DHT22;2065;49.790;9.620;2022-12-07T13:53:12;9.20;56.50
4103;DHT22;2065;49.790;9.620;2022-12-07T13:55:45;9.50;56.90
4103;DHT22;2065;49.790;9.620;2022-12-07T13:58:14;9.60;56.60
4103;DHT22;2065;49.790;9.620;2022-12-07T14:00:41;9.50;56.80
4103;DHT22;2065;49.790;9.620;2022-12-07T14:03:30;9.70;56.50
4103;DHT22;2065;49.790;9.620;2022-12-07T14:06:07;9.80;55.70
4103;DHT22;2065;49.790;9.620;2022-12-07T14:08:34;9.60;55.40
4103;DHT22;2065;49.790;9.620;2022-12-07T14:11:01;9.30;56.60
4103;DHT22;2065;49.790;9.620;2022-12-07T14:13:32;9.30;57.40
4103;DHT22;2065;49.790;9.620;2022-12-07T14:15:59;9.60;58.10
4103;DHT22;2065;49.790;9.620;2022-12-07T14:18:29;9.50;56.50
4103;DHT22;2065;49.790;9.620;2022-12-07T14:21:03;9.50;56.30
4103;DHT22;2065;49.790;9.620;2022-12-07T14:23:31;9.80;56.70
4103;DHT22;2065;49.790;9.620;2022-12-07T14:26:07;9.90;56.60
4103;DHT22;2065;49.790;9.620;2022-12-07T14:28:37;9.80;56.10
4103;DHT22;2065;49.790;9.620;2022-12-07T14:31:11;9.80;56.40
4103;DHT22;2065;49.790;9.620;2022-12-07T14:33:39;9.60;56.80
4103;DHT22;2065;49.790;9.620;2022-12-07T14:36:09;9.40;57.10
4103;DHT22;2065;49.790;9.620;2022-12-07T14:38:36;9.50;57.10
4103;DHT22;2065;49.790;9.620;2022-12-07T14:41:03;9.40;56.30
4103;DHT22;2065;49.790;9.620;2022-12-07T14:43:46;9.30;56.60
4103;DHT22;2065;49.790;9.620;2022-12-07T14:46:13;9.10;57.00
4103;DHT22;2065;49.790;9.620;2022-12-07T14:48:40;9.20;56.80
4103;DHT22;2065;49.790;9.620;2022-12-07T14:51:07;9.20;56.70
4103;DHT22;2065;49.790;9.620;2022-12-07T14:53:40;9.30;56.60
4103;DHT22;2065;49.790;9.620;2022-12-07T14:56:07;9.20;57.00
4103;DHT22;2065;49.790;9.620;2022-12-07T14:58:34;9.30;57.20
4103;DHT22;2065;49.790;9.620;2022-12-07T15:01:03;9.40;57.10
4103;DHT22;2065;49.790;9.620;2022-12-07T15:03:30;9.40;57.10
4103;DHT22;2065;49.790;9.620;2022-12-07T15:05:57;9.30;57.30
4103;DHT22;2065;49.790;9.620;2022-12-07T15:08:24;9.10;57.40
4103;DHT22;2065;49.790;9.620;2022-12-07T15:10:51;9.10;57.80
4103;DHT22;2065;49.790;9.620;2022-12-07T15:13:18;9.00;58.20
4103;DHT22;2065;49.790;9.620;2022-12-07T15:16:07;8.90;58.60
4103;DHT22;2065;49.790;9.620;2022-12-07T15:18:35;8.90;58.50
4103;DHT22;2065;49.790;9.620;2022-12-07T15:21:02;8.90;58.10
4103;DHT22;2065;49.790;9.620;2022-12-07T15:23:29;8.90;58.50
4103;DHT22;2065;49.790;9.620;2022-12-07T15:25:56;9.00;58.10
4103;DHT22;2065;49.790;9.620;2022-12-07T15:28:23;8.90;58.40
4103;DHT22;2065;49.790;9.620;2022-12-07T15:30:51;8.90;58.40
4103;DHT22;2065;49.790;9.620;2022-12-07T15:33:19;9.00;58.10
4103;DHT22;2065;49.790;9.620;2022-12-07T15:35:46;9.10;58.30
4103;DHT22;2065;49.790;9.620;2022-12-07T15:38:13;8.80;58.70
4103;DHT22;2065;49.790;9.620;2022-12-07T15:40:40;8.60;59.70
4103;DHT22;2065;49.790;9.620;2022-12-07T15:43:09;8.40;60.40
4103;DHT22;2065;49.790;9.620;2022-12-07T15:45:56;8.50;60.60
4103;DHT22;2065;49.790;9.620;2022-12-07T15:48:23;8.80;60.70
4103;DHT22;2065;49.790;9.620;2022-12-07T15:50:50;9.00;59.70
4103;DHT22;2065;49.790;9.620;2022-12-07T15:53:17;9.00;59.60
4103;DHT22;2065;49.790;9.620;2022-12-07T15:55:44;9.00;59.80
4103;DHT22;2065;49.790;9.620;2022-12-07T15:58:11;8.90;60.70
4103;DHT22;2065;49.790;9.620;2022-12-07T16:00:38;8.70;61.00
4103;DHT22;2065;49.790;9.620;2022-12-07T16:03:05;9.00;60.70
4103;DHT22;2065;49.790;9.620;2022-12-07T16:05:33;9.20;60.00
4103;DHT22;2065;49.790;9.620;2022-12-07T16:08:00;9.30;59.70
4103;DHT22;2065;49.790;9.620;2022-12-07T16:10:27;9.50;59.30
4103;DHT22;2065;49.790;9.620;2022-12-07T16:12:54;9.40;59.10
4103;DHT22;2065;49.790;9.620;2022-12-07T16:15:21;9.40;59.00
4103;DHT22;2065;49.790;9.620;2022-12-07T16:17:50;9.40;58.80
4103;DHT22;2065;49.790;9.620;2022-12-07T16:20:17;9.40;59.00
4103;DHT22;2065;49.790;9.620;2022-12-07T16:22:45;9.10;59.50
4103;DHT22;2065;49.790;9.620;2022-12-07T16:25:12;9.10;59.70
4103;DHT22;2065;49.790;9.620;2022-12-07T16:27:40;9.00;59.40
4103;DHT22;2065;49.790;9.620;2022-12-07T16:30:08;9.10;59.70
4103;DHT22;2065;49.790;9.620;2022-12-07T16:32:35;9.10;59.40
4103;DHT22;2065;49.790;9.620;2022-12-07T16:35:02;9.10;59.30
4103;DHT22;2065;49.790;9.620;2022-12-07T16:37:29;9.10;59.40
4103;DHT22;2065;49.790;9.620;2022-12-07T16:39:57;9.20;59.30
4103;DHT22;2065;49.790;9.620;2022-12-07T16:42:24;9.30;59.00
4103;DHT22;2065;49.790;9.620;2022-12-07T16:44:52;9.30;59.20
4103;DHT22;2065;49.790;9.620;2022-12-07T16:47:19;9.30;59.10
4103;DHT22;2065;49.790;9.620;2022-12-07T16:49:46;9.40;58.90
4103;DHT22;2065;49.790;9.620;2022-12-07T16:52:13;9.60;58.80
4103;DHT22;2065;49.790;9.620;2022-12-07T16:54:40;9.60;58.60